createdAt,value
2016-12-04T00:00:07.050Z,2.92
2016-12-04T00:00:33.137Z,2.93
2016-12-04T00:00:59.229Z,2.79
2016-12-04T00:01:25.326Z,2.89
2016-12-04T00:01:51.408Z,2.85
2016-12-04T00:02:17.502Z,2.87
2016-12-04T00:02:43.593Z,2.8
2016-12-04T00:03:09.675Z,2.79
2016-12-04T00:03:35.761Z,2.79
2016-12-04T00:04:01.860Z,2.69
2016-12-04T00:04:27.946Z,2.79
2016-12-04T00:04:54.028Z,2.67
2016-12-04T00:05:20.124Z,2.62
2016-12-04T00:05:46.219Z,2.74
2016-12-04T00:06:12.306Z,2.64
2016-12-04T00:06:38.402Z,2.64
2016-12-04T00:07:04.495Z,2.68
2016-12-04T00:07:30.573Z,2.65
2016-12-04T00:07:56.666Z,2.65
2016-12-04T00:08:22.762Z,2.67
2016-12-04T00:08:48.840Z,2.67
2016-12-04T00:09:14.930Z,2.64
2016-12-04T00:09:41.022Z,2.61
2016-12-04T00:10:07.102Z,2.56
2016-12-04T00:10:33.191Z,2.54
2016-12-04T00:10:59.290Z,2.57
2016-12-04T00:11:25.375Z,2.61
2016-12-04T00:11:51.469Z,2.54
2016-12-04T00:12:17.544Z,2.54
2016-12-04T00:12:43.632Z,2.53
2016-12-04T00:13:09.728Z,2.56
2016-12-04T00:13:35.810Z,2.56
2016-12-04T00:14:01.897Z,2.54
2016-12-04T00:14:27.992Z,2.56
2016-12-04T00:14:54.080Z,2.56
2016-12-04T00:15:20.160Z,2.49
2016-12-04T00:15:46.260Z,2.57
2016-12-04T00:16:12.351Z,2.6
2016-12-04T00:16:38.428Z,2.57
2016-12-04T00:17:04.526Z,2.57
2016-12-04T00:17:30.610Z,2.62
2016-12-04T00:17:56.709Z,2.56
2016-12-04T00:18:22.793Z,2.62
2016-12-04T00:18:48.872Z,2.51
2016-12-04T00:19:14.975Z,2.49
2016-12-04T00:19:41.058Z,2.53
2016-12-04T00:20:07.172Z,2.43
2016-12-04T00:20:33.269Z,2.43
2016-12-04T00:20:59.363Z,2.5
2016-12-04T00:21:25.441Z,2.46
2016-12-04T00:21:51.532Z,2.39
2016-12-04T00:22:17.632Z,2.36
2016-12-04T00:22:43.718Z,2.33
2016-12-04T00:23:09.805Z,2.36
2016-12-04T00:23:35.908Z,2.36
2016-12-04T00:24:02.005Z,2.42
2016-12-04T00:24:28.095Z,2.39
2016-12-04T00:24:54.177Z,2.42
2016-12-04T00:25:20.271Z,2.35
2016-12-04T00:25:46.360Z,2.35
2016-12-04T00:26:12.443Z,2.43
2016-12-04T00:26:38.534Z,2.33
2016-12-04T00:27:04.628Z,2.31
2016-12-04T00:27:30.703Z,2.31
2016-12-04T00:27:56.794Z,2.33
2016-12-04T00:28:22.879Z,2.28
2016-12-04T00:28:48.971Z,2.29
2016-12-04T00:29:15.069Z,2.25
2016-12-04T00:29:41.147Z,2.32
2016-12-04T00:30:07.239Z,2.28
2016-12-04T00:30:33.330Z,2.15
2016-12-04T00:30:59.415Z,2.18
2016-12-04T00:31:25.509Z,2.26
2016-12-04T00:31:51.601Z,2.25
2016-12-04T00:32:17.687Z,2.22
2016-12-04T00:32:43.770Z,2.28
2016-12-04T00:33:09.868Z,2.25
2016-12-04T00:33:35.958Z,2.32
2016-12-04T00:34:02.052Z,2.18
2016-12-04T00:34:28.135Z,2.28
2016-12-04T00:34:54.223Z,2.26
2016-12-04T00:35:20.321Z,2.29
2016-12-04T00:35:46.404Z,2.26
2016-12-04T00:36:12.486Z,2.26
2016-12-04T00:36:38.585Z,2.28
2016-12-04T00:37:04.676Z,2.29
2016-12-04T00:37:30.757Z,2.29
2016-12-04T00:37:56.851Z,2.32
2016-12-04T00:38:22.944Z,2.33
2016-12-04T00:38:49.021Z,2.39
2016-12-04T00:39:15.120Z,2.33
2016-12-04T00:39:41.204Z,2.33
2016-12-04T00:40:07.302Z,2.38
2016-12-04T00:40:33.385Z,2.31
2016-12-04T00:40:59.466Z,2.32
2016-12-04T00:41:25.660Z,2.33
2016-12-04T00:41:51.749Z,2.35
2016-12-04T00:42:17.824Z,2.31
2016-12-04T00:42:43.920Z,2.31
2016-12-04T00:43:10.020Z,2.43
2016-12-04T00:43:36.100Z,2.39
2016-12-04T00:44:02.193Z,2.29
2016-12-04T00:44:28.286Z,2.33
2016-12-04T00:44:54.368Z,2.33
2016-12-04T00:45:20.465Z,2.35
2016-12-04T00:45:46.550Z,2.33
2016-12-04T00:46:12.647Z,2.33
2016-12-04T00:46:38.740Z,2.39
2016-12-04T00:47:04.813Z,2.39
2016-12-04T00:47:30.909Z,2.38
2016-12-04T00:47:57.007Z,2.39
2016-12-04T00:48:23.093Z,2.43
2016-12-04T00:48:49.175Z,2.43
2016-12-04T00:49:15.273Z,2.49
2016-12-04T00:49:41.356Z,2.43
2016-12-04T00:50:07.438Z,2.43
2016-12-04T00:50:33.539Z,2.44
2016-12-04T00:50:59.627Z,2.36
2016-12-04T00:51:25.711Z,2.38
2016-12-04T00:51:51.808Z,2.36
2016-12-04T00:52:17.899Z,2.36
2016-12-04T00:52:43.986Z,2.39
2016-12-04T00:53:10.079Z,2.38
2016-12-04T00:53:36.175Z,2.33
2016-12-04T00:54:02.260Z,2.33
2016-12-04T00:54:28.350Z,2.33
2016-12-04T00:54:54.444Z,2.31
2016-12-04T00:55:20.519Z,2.26
2016-12-04T00:55:46.610Z,2.26
2016-12-04T00:56:12.698Z,2.29
2016-12-04T00:56:39.090Z,2.29
2016-12-04T00:57:05.188Z,2.33
2016-12-04T00:57:31.270Z,2.42
2016-12-04T00:57:57.362Z,2.33
2016-12-04T00:58:23.454Z,2.31
2016-12-04T00:58:49.532Z,2.33
2016-12-04T00:59:15.621Z,2.33
2016-12-04T00:59:41.721Z,2.43
2016-12-04T01:00:07.805Z,2.39
2016-12-04T01:00:33.884Z,2.43
2016-12-04T01:00:59.982Z,2.39
2016-12-04T01:01:26.071Z,2.38
2016-12-04T01:01:52.167Z,2.39
2016-12-04T01:02:18.247Z,2.32
2016-12-04T01:02:44.338Z,2.32
2016-12-04T01:03:10.438Z,2.29
2016-12-04T01:03:36.523Z,2.32
2016-12-04T01:04:02.605Z,2.36
2016-12-04T01:04:28.705Z,2.35
2016-12-04T01:04:54.792Z,2.36
2016-12-04T01:05:20.876Z,2.28
2016-12-04T01:05:46.978Z,2.35
2016-12-04T01:06:13.069Z,2.29
2016-12-04T01:06:39.153Z,2.32
2016-12-04T01:07:05.243Z,2.15
2016-12-04T01:07:31.321Z,2.28
2016-12-04T01:07:57.421Z,2.31
2016-12-04T01:08:23.506Z,2.26
2016-12-04T01:08:49.588Z,2.17
2016-12-04T01:09:15.682Z,2.29
2016-12-04T01:09:41.774Z,2.29
2016-12-04T01:10:07.853Z,2.31
2016-12-04T01:10:33.945Z,2.31
2016-12-04T01:11:00.040Z,2.32
2016-12-04T01:11:26.219Z,2.35
2016-12-04T01:11:52.312Z,2.33
2016-12-04T01:12:18.406Z,2.38
2016-12-04T01:12:44.486Z,2.33
2016-12-04T01:13:10.575Z,2.29
2016-12-04T01:13:36.659Z,2.26
2016-12-04T01:14:02.750Z,2.28
2016-12-04T01:14:28.847Z,2.32
2016-12-04T01:14:54.927Z,2.31
2016-12-04T01:15:21.019Z,2.28
2016-12-04T01:15:47.113Z,2.31
2016-12-04T01:16:13.197Z,2.33
2016-12-04T01:16:39.289Z,2.33
2016-12-04T01:17:05.388Z,2.35
2016-12-04T01:17:31.466Z,2.31
2016-12-04T01:17:57.550Z,2.33
2016-12-04T01:18:23.645Z,2.31
2016-12-04T01:18:49.740Z,2.32
2016-12-04T01:19:15.835Z,2.33
2016-12-04T01:19:41.917Z,2.31
2016-12-04T01:20:08.004Z,2.31
2016-12-04T01:20:34.098Z,2.29
2016-12-04T01:21:00.185Z,2.33
2016-12-04T01:21:26.267Z,2.32
2016-12-04T01:21:52.361Z,2.35
2016-12-04T01:22:18.451Z,2.31
2016-12-04T01:22:44.533Z,2.38
2016-12-04T01:23:10.633Z,2.38
2016-12-04T01:23:36.725Z,2.33
2016-12-04T01:24:02.816Z,2.33
2016-12-04T01:24:28.899Z,2.35
2016-12-04T01:24:54.982Z,2.38
2016-12-04T01:25:21.083Z,2.5
2016-12-04T01:25:47.172Z,2.46
2016-12-04T01:26:13.250Z,2.42
2016-12-04T01:26:39.647Z,2.43
2016-12-04T01:27:05.738Z,2.44
2016-12-04T01:27:31.823Z,2.43
2016-12-04T01:27:57.920Z,2.51
2016-12-04T01:28:24.018Z,2.44
2016-12-04T01:28:50.096Z,2.53
2016-12-04T01:29:16.190Z,2.57
2016-12-04T01:29:42.276Z,2.6
2016-12-04T01:30:08.370Z,2.54
2016-12-04T01:30:34.459Z,2.54
2016-12-04T01:31:00.541Z,2.49
2016-12-04T01:31:26.635Z,2.46
2016-12-04T01:31:52.736Z,2.43
2016-12-04T01:32:18.820Z,2.46
2016-12-04T01:32:44.913Z,2.43
2016-12-04T01:33:11.006Z,2.39
2016-12-04T01:33:37.088Z,2.46
2016-12-04T01:34:03.182Z,2.44
2016-12-04T01:34:29.280Z,2.47
2016-12-04T01:34:55.365Z,2.36
2016-12-04T01:35:21.450Z,2.42
2016-12-04T01:35:47.547Z,2.36
2016-12-04T01:36:13.631Z,2.35
2016-12-04T01:36:39.712Z,2.39
2016-12-04T01:37:05.810Z,2.36
2016-12-04T01:37:31.897Z,2.36
2016-12-04T01:37:57.978Z,2.36
2016-12-04T01:38:24.072Z,2.42
2016-12-04T01:38:50.171Z,2.42
2016-12-04T01:39:16.251Z,2.33
2016-12-04T01:39:42.338Z,2.31
2016-12-04T01:40:08.435Z,2.33
2016-12-04T01:40:34.518Z,2.38
2016-12-04T01:41:00.612Z,2.47
2016-12-04T01:41:26.693Z,2.28
2016-12-04T01:41:52.889Z,2.26
2016-12-04T01:42:18.991Z,2.33
2016-12-04T01:42:45.070Z,2.28
2016-12-04T01:43:11.159Z,2.33
2016-12-04T01:43:37.255Z,2.24
2016-12-04T01:44:03.335Z,2.25
2016-12-04T01:44:29.423Z,2.29
2016-12-04T01:44:55.519Z,2.32
2016-12-04T01:45:21.600Z,2.31
2016-12-04T01:45:47.683Z,2.26
2016-12-04T01:46:13.779Z,2.31
2016-12-04T01:46:39.864Z,2.31
2016-12-04T01:47:05.959Z,2.36
2016-12-04T01:47:32.042Z,2.28
2016-12-04T01:47:58.129Z,2.31
2016-12-04T01:48:24.231Z,2.38
2016-12-04T01:48:50.315Z,2.43
2016-12-04T01:49:16.399Z,2.36
2016-12-04T01:49:42.496Z,2.38
2016-12-04T01:50:08.583Z,2.46
2016-12-04T01:50:34.666Z,2.43
2016-12-04T01:51:00.764Z,2.5
2016-12-04T01:51:26.858Z,2.62
2016-12-04T01:51:52.953Z,2.5
2016-12-04T01:52:19.034Z,2.5
2016-12-04T01:52:45.115Z,2.57
2016-12-04T01:53:11.217Z,2.68
2016-12-04T01:53:37.300Z,2.64
2016-12-04T01:54:03.383Z,2.64
2016-12-04T01:56:20.797Z,2.6
2016-12-04T01:56:46.880Z,2.69
2016-12-04T01:57:12.959Z,2.69
2016-12-04T01:57:39.058Z,2.71
2016-12-04T01:58:05.143Z,2.68
2016-12-04T01:58:31.229Z,2.65
2016-12-04T01:58:57.325Z,2.64
2016-12-04T01:59:23.414Z,2.67
2016-12-04T01:59:49.493Z,2.69
2016-12-04T02:00:15.582Z,2.64
2016-12-04T02:00:41.680Z,2.67
2016-12-04T02:01:07.757Z,2.68
2016-12-04T02:01:33.851Z,2.71
2016-12-04T02:01:59.936Z,2.69
2016-12-04T02:02:26.028Z,2.6
2016-12-04T02:02:52.118Z,2.65
2016-12-04T02:03:18.204Z,2.71
2016-12-04T02:03:44.302Z,2.6
2016-12-04T02:04:10.399Z,2.69
2016-12-04T02:04:36.478Z,2.71
2016-12-04T02:05:02.569Z,2.71
2016-12-04T02:05:28.668Z,2.72
2016-12-04T02:05:54.754Z,2.72
2016-12-04T02:06:20.841Z,2.69
2016-12-04T02:06:46.934Z,2.72
2016-12-04T02:07:13.021Z,2.72
2016-12-04T02:07:39.116Z,2.71
2016-12-04T02:08:05.195Z,2.74
2016-12-04T02:08:31.290Z,2.77
2016-12-04T02:08:57.381Z,2.77
2016-12-04T02:09:23.462Z,2.8
2016-12-04T02:09:49.548Z,2.82
2016-12-04T02:10:15.649Z,2.69
2016-12-04T02:10:41.737Z,2.72
2016-12-04T02:11:07.822Z,2.71
2016-12-04T02:11:33.922Z,2.6
2016-12-04T02:12:00.010Z,2.68
2016-12-04T02:12:26.092Z,2.61
2016-12-04T02:12:52.188Z,2.65
2016-12-04T02:13:18.271Z,2.53
2016-12-04T02:13:44.365Z,2.56
2016-12-04T02:14:10.446Z,2.5
2016-12-04T02:14:36.526Z,2.51
2016-12-04T02:15:02.626Z,2.42
2016-12-04T02:15:28.712Z,2.38
2016-12-04T02:15:54.816Z,2.33
2016-12-04T02:16:20.946Z,2.33
2016-12-04T02:16:47.038Z,2.28
2016-12-04T02:17:13.126Z,2.31
2016-12-04T02:17:39.219Z,2.22
2016-12-04T02:18:05.311Z,2.33
2016-12-04T02:18:31.388Z,2.28
2016-12-04T02:18:57.480Z,2.25
2016-12-04T02:19:23.581Z,2.17
2016-12-04T02:19:49.658Z,2.2
2016-12-04T02:20:15.749Z,2.15
2016-12-04T02:20:41.846Z,2.15
2016-12-04T02:21:07.929Z,2.11
2016-12-04T02:21:34.005Z,2.15
2016-12-04T02:22:00.104Z,2.07
2016-12-04T02:22:26.186Z,2.1
2016-12-04T02:22:52.271Z,2.06
2016-12-04T02:23:18.363Z,2.06
2016-12-04T02:23:44.449Z,2.08
2016-12-04T02:24:10.565Z,2.07
2016-12-04T02:24:36.650Z,1.99
2016-12-04T02:25:02.731Z,2
2016-12-04T02:25:28.833Z,2
2016-12-04T02:25:54.923Z,1.99
2016-12-04T02:26:21.006Z,1.97
2016-12-04T02:26:47.102Z,1.85
2016-12-04T02:27:13.190Z,1.89
2016-12-04T02:27:39.273Z,1.92
2016-12-04T02:28:05.368Z,1.85
2016-12-04T02:28:31.462Z,1.81
2016-12-04T02:28:57.542Z,1.84
2016-12-04T02:29:23.635Z,1.81
2016-12-04T02:29:49.722Z,1.81
2016-12-04T02:30:15.820Z,1.77
2016-12-04T02:30:41.911Z,1.84
2016-12-04T02:31:07.996Z,1.81
2016-12-04T02:31:34.088Z,1.81
2016-12-04T02:32:00.185Z,1.77
2016-12-04T02:32:26.265Z,1.78
2016-12-04T02:32:52.353Z,1.78
2016-12-04T02:33:18.452Z,1.84
2016-12-04T02:33:44.535Z,1.8
2016-12-04T02:34:10.623Z,1.81
2016-12-04T02:34:36.746Z,1.77
2016-12-04T02:35:02.831Z,1.81
2016-12-04T02:35:28.925Z,1.87
2016-12-04T02:35:55.004Z,1.8
2016-12-04T02:36:21.094Z,1.85
2016-12-04T02:36:47.192Z,1.81
2016-12-04T02:37:13.278Z,1.74
2016-12-04T02:37:39.367Z,1.81
2016-12-04T02:38:05.463Z,1.74
2016-12-04T02:38:31.545Z,1.73
2016-12-04T02:38:57.627Z,1.78
2016-12-04T02:39:23.723Z,1.84
2016-12-04T02:39:49.811Z,1.77
2016-12-04T02:40:15.893Z,1.76
2016-12-04T02:40:41.988Z,1.78
2016-12-04T02:41:08.078Z,1.73
2016-12-04T02:41:34.175Z,1.81
2016-12-04T02:42:00.264Z,1.81
2016-12-04T02:42:26.345Z,1.81
2016-12-04T02:42:52.443Z,1.74
2016-12-04T02:43:18.557Z,1.78
2016-12-04T02:43:44.672Z,1.8
2016-12-04T02:44:10.734Z,1.73
2016-12-04T02:44:36.823Z,1.76
2016-12-04T02:45:02.904Z,1.8
2016-12-04T02:45:28.997Z,1.87
2016-12-04T02:45:55.096Z,1.84
2016-12-04T02:46:21.177Z,1.84
2016-12-04T02:46:47.268Z,1.8
2016-12-04T02:47:13.349Z,1.81
2016-12-04T02:47:39.441Z,1.89
2016-12-04T02:48:05.532Z,1.84
2016-12-04T02:48:31.631Z,1.84
2016-12-04T02:48:57.723Z,1.85
2016-12-04T02:49:23.845Z,1.95
2016-12-04T02:49:49.904Z,1.99
2016-12-04T02:50:15.982Z,1.97
2016-12-04T02:50:42.078Z,1.95
2016-12-04T02:51:08.164Z,1.95
2016-12-04T02:51:34.249Z,1.89
2016-12-04T02:52:00.346Z,1.97
2016-12-04T02:52:26.429Z,1.89
2016-12-04T02:52:52.525Z,1.88
2016-12-04T02:53:18.605Z,1.92
2016-12-04T02:53:44.694Z,1.89
2016-12-04T02:54:10.793Z,1.97
2016-12-04T02:54:36.875Z,1.97
2016-12-04T02:55:02.961Z,1.97
2016-12-04T02:55:29.060Z,1.94
2016-12-04T02:55:55.147Z,1.95
2016-12-04T02:56:21.228Z,1.97
2016-12-04T02:56:47.323Z,1.97
2016-12-04T02:57:13.402Z,1.88
2016-12-04T02:57:39.497Z,1.95
2016-12-04T02:58:05.577Z,1.91
2016-12-04T02:58:31.656Z,1.97
2016-12-04T02:58:57.754Z,2
2016-12-04T02:59:23.836Z,1.99
2016-12-04T02:59:49.916Z,1.99
2016-12-04T03:00:16.010Z,1.99
2016-12-04T03:00:42.095Z,2
2016-12-04T03:01:08.179Z,2
2016-12-04T03:01:34.282Z,2.14
2016-12-04T03:02:00.374Z,2
2016-12-04T03:02:26.460Z,1.99
2016-12-04T03:02:52.547Z,2.06
2016-12-04T03:03:18.643Z,2.11
2016-12-04T03:03:44.728Z,2.08
2016-12-04T03:04:10.819Z,2.1
2016-12-04T03:04:36.914Z,2.04
2016-12-04T03:05:02.996Z,2.07
2016-12-04T03:05:29.085Z,2.1
2016-12-04T03:05:55.182Z,2.1
2016-12-04T03:06:21.264Z,2.08
2016-12-04T03:06:47.345Z,2.08
2016-12-04T03:07:13.445Z,2.14
2016-12-04T03:07:39.534Z,2.13
2016-12-04T03:08:05.611Z,2.11
2016-12-04T03:08:31.710Z,2.08
2016-12-04T03:08:57.796Z,2.1
2016-12-04T03:09:23.901Z,2.13
2016-12-04T03:09:49.995Z,2.08
2016-12-04T03:10:16.090Z,2.07
2016-12-04T03:10:42.170Z,2.06
2016-12-04T03:11:08.259Z,2.08
2016-12-04T03:11:34.357Z,1.97
2016-12-04T03:12:00.445Z,2.08
2016-12-04T03:12:26.532Z,2.11
2016-12-04T03:12:52.630Z,2.11
2016-12-04T03:13:18.715Z,2.17
2016-12-04T03:13:44.804Z,2.18
2016-12-04T03:14:10.916Z,2.13
2016-12-04T03:14:36.995Z,2.22
2016-12-04T03:15:03.091Z,2.17
2016-12-04T03:15:29.168Z,2.14
2016-12-04T03:15:55.254Z,2.13
2016-12-04T03:16:21.353Z,2.15
2016-12-04T03:16:47.460Z,2.2
2016-12-04T03:17:13.547Z,2.15
2016-12-04T03:17:39.648Z,2.22
2016-12-04T03:18:05.731Z,2.15
2016-12-04T03:18:31.813Z,2.15
2016-12-04T03:18:57.952Z,2.13
2016-12-04T03:19:24.042Z,2.13
2016-12-04T03:19:50.132Z,2.15
2016-12-04T03:20:16.222Z,2.13
2016-12-04T03:20:42.301Z,2.07
2016-12-04T03:21:08.402Z,2.1
2016-12-04T03:21:34.489Z,1.97
2016-12-04T03:22:00.569Z,1.99
2016-12-04T03:22:26.666Z,1.99
2016-12-04T03:22:52.758Z,2
2016-12-04T03:23:18.839Z,1.99
2016-12-04T03:23:44.932Z,2.02
2016-12-04T03:24:11.026Z,1.89
2016-12-04T03:24:37.107Z,1.89
2016-12-04T03:25:03.202Z,2
2016-12-04T03:25:29.313Z,2
2016-12-04T03:25:55.386Z,1.92
2016-12-04T03:26:21.472Z,1.99
2016-12-04T03:26:47.566Z,2.06
2016-12-04T03:27:13.654Z,1.95
2016-12-04T03:27:39.738Z,1.92
2016-12-04T03:28:05.837Z,1.99
2016-12-04T03:28:31.921Z,2.06
2016-12-04T03:28:58.003Z,1.99
2016-12-04T03:29:24.098Z,1.94
2016-12-04T03:29:50.221Z,1.99
2016-12-04T03:30:16.301Z,1.97
2016-12-04T03:30:42.393Z,1.91
2016-12-04T03:31:08.472Z,1.87
2016-12-04T03:31:34.572Z,1.85
2016-12-04T03:32:00.659Z,1.87
2016-12-04T03:32:26.742Z,1.91
2016-12-04T03:32:52.836Z,1.85
2016-12-04T03:33:18.929Z,1.87
2016-12-04T03:33:45.007Z,1.91
2016-12-04T03:34:11.096Z,1.88
2016-12-04T03:34:37.199Z,1.8
2016-12-04T03:35:03.278Z,1.8
2016-12-04T03:35:29.367Z,1.85
2016-12-04T03:35:55.460Z,1.88
2016-12-04T03:36:21.541Z,1.84
2016-12-04T03:36:47.637Z,1.81
2016-12-04T03:37:13.720Z,1.89
2016-12-04T03:37:39.912Z,1.84
2016-12-04T03:38:06.010Z,1.85
2016-12-04T03:38:32.085Z,1.88
2016-12-04T03:38:58.178Z,1.85
2016-12-04T03:39:24.275Z,1.92
2016-12-04T03:39:50.356Z,1.97
2016-12-04T03:40:16.446Z,1.91
2016-12-04T03:40:42.544Z,1.99
2016-12-04T03:41:08.631Z,1.91
2016-12-04T03:41:34.712Z,1.94
2016-12-04T03:42:00.802Z,2
2016-12-04T03:42:26.888Z,1.94
2016-12-04T03:42:52.984Z,2
2016-12-04T03:43:19.067Z,1.88
2016-12-04T03:43:45.155Z,1.94
2016-12-04T03:44:11.249Z,1.92
2016-12-04T03:44:37.328Z,1.85
2016-12-04T03:45:03.412Z,1.88
2016-12-04T03:45:29.507Z,1.87
2016-12-04T03:45:55.592Z,1.94
2016-12-04T03:46:21.671Z,2
2016-12-04T03:46:47.768Z,1.95
2016-12-04T03:47:13.861Z,1.95
2016-12-04T03:47:39.948Z,1.94
2016-12-04T03:48:06.044Z,1.97
2016-12-04T03:48:32.138Z,1.97
2016-12-04T03:48:58.217Z,1.99
2016-12-04T03:49:24.306Z,1.97
2016-12-04T03:49:50.399Z,2.1
2016-12-04T03:50:16.482Z,2.13
2016-12-04T03:50:42.568Z,2.11
2016-12-04T03:51:08.665Z,2.13
2016-12-04T03:51:34.749Z,2.17
2016-12-04T03:52:00.834Z,2.17
2016-12-04T03:52:26.927Z,2.18
2016-12-04T03:52:53.019Z,2.17
2016-12-04T03:53:19.118Z,2.13
2016-12-04T03:53:45.199Z,2.11
2016-12-04T03:54:11.290Z,2.13
2016-12-04T03:54:37.387Z,2.13
2016-12-04T03:55:03.467Z,2.15
2016-12-04T03:55:29.548Z,2.14
2016-12-04T03:55:55.645Z,2.13
2016-12-04T03:56:21.731Z,2.1
2016-12-04T03:56:47.815Z,2.18
2016-12-04T03:57:13.910Z,2.15
2016-12-04T03:57:40.024Z,2.1
2016-12-04T03:58:06.107Z,2.08
2016-12-04T03:58:32.201Z,2.11
2016-12-04T03:58:58.279Z,2.15
2016-12-04T03:59:24.376Z,2.2
2016-12-04T03:59:50.465Z,2.11
2016-12-04T04:00:16.550Z,2.2
2016-12-04T04:00:42.649Z,2.15
2016-12-04T04:01:08.737Z,2.15
2016-12-04T04:01:34.819Z,2.14
2016-12-04T04:02:00.914Z,2.17
2016-12-04T04:02:27.007Z,2.18
2016-12-04T04:02:53.097Z,2.14
2016-12-04T04:03:19.182Z,2.14
2016-12-04T04:03:45.276Z,2.11
2016-12-04T04:04:11.359Z,2.17
2016-12-04T04:04:37.455Z,2.07
2016-12-04T04:05:03.541Z,2.08
2016-12-04T04:05:29.638Z,2.08
2016-12-04T04:05:55.736Z,2.1
2016-12-04T04:06:21.820Z,1.94
2016-12-04T04:06:47.910Z,1.99
2016-12-04T04:07:14.007Z,2
2016-12-04T04:07:40.091Z,1.94
2016-12-04T04:08:06.277Z,1.95
2016-12-04T04:08:32.373Z,1.97
2016-12-04T04:08:58.460Z,2.04
2016-12-04T04:09:24.544Z,2.1
2016-12-04T04:09:50.638Z,1.99
2016-12-04T04:10:16.728Z,2.13
2016-12-04T04:10:42.823Z,1.92
2016-12-04T04:11:08.908Z,2.04
2016-12-04T04:11:34.993Z,2
2016-12-04T04:12:01.094Z,2
2016-12-04T04:12:27.175Z,1.95
2016-12-04T04:12:53.253Z,1.95
2016-12-04T04:13:19.352Z,2.14
2016-12-04T04:13:45.440Z,2.1
2016-12-04T04:14:11.521Z,2.11
2016-12-04T04:14:37.616Z,1.95
2016-12-04T04:15:03.707Z,1.95
2016-12-04T04:15:29.796Z,1.95
2016-12-04T04:15:55.881Z,1.99
2016-12-04T04:16:21.965Z,2
2016-12-04T04:16:48.061Z,1.94
2016-12-04T04:17:14.145Z,2.02
2016-12-04T04:17:40.225Z,1.99
2016-12-04T04:18:06.319Z,1.94
2016-12-04T04:18:32.409Z,2.02
2016-12-04T04:18:58.487Z,2.1
2016-12-04T04:19:24.583Z,1.89
2016-12-04T04:19:50.702Z,2.02
2016-12-04T04:20:16.783Z,2.07
2016-12-04T04:20:42.870Z,2.04
2016-12-04T04:21:08.954Z,2
2016-12-04T04:21:35.047Z,2.06
2016-12-04T04:22:01.136Z,2.07
2016-12-04T04:22:27.221Z,2.04
2016-12-04T04:22:53.311Z,2.1
2016-12-04T04:23:19.408Z,2.07
2016-12-04T04:23:45.488Z,2.11
2016-12-04T04:24:11.576Z,2.08
2016-12-04T04:24:37.674Z,2.18
2016-12-04T04:25:03.754Z,2.17
2016-12-04T04:25:29.841Z,2.14
2016-12-04T04:25:55.963Z,2.14
2016-12-04T04:26:22.045Z,2.11
2016-12-04T04:26:48.140Z,2.17
2016-12-04T04:27:14.221Z,2.11
2016-12-04T04:27:40.311Z,2.14
2016-12-04T04:28:06.403Z,2.11
2016-12-04T04:28:32.486Z,2.11
2016-12-04T04:28:58.576Z,2.15
2016-12-04T04:29:24.668Z,2.14
2016-12-04T04:29:50.753Z,2.13
2016-12-04T04:30:16.838Z,2.18
2016-12-04T04:30:42.933Z,2.14
2016-12-04T04:31:09.017Z,2.18
2016-12-04T04:31:35.104Z,2.08
2016-12-04T04:32:01.196Z,2.08
2016-12-04T04:32:27.288Z,2.1
2016-12-04T04:32:53.370Z,2.11
2016-12-04T04:33:19.470Z,2.11
2016-12-04T04:33:45.563Z,2.18
2016-12-04T04:34:11.643Z,2.18
2016-12-04T04:34:37.735Z,2.14
2016-12-04T04:35:03.835Z,2.26
2016-12-04T04:35:29.914Z,2.32
2016-12-04T04:35:55.999Z,2.33
2016-12-04T04:36:22.096Z,2.32
2016-12-04T04:36:48.183Z,2.31
2016-12-04T04:37:14.261Z,2.32
2016-12-04T04:37:40.352Z,2.31
2016-12-04T04:38:06.441Z,2.28
2016-12-04T04:38:32.637Z,2.25
2016-12-04T04:38:58.724Z,2.29
2016-12-04T04:39:24.808Z,2.29
2016-12-04T04:39:50.905Z,2.31
2016-12-04T04:40:16.988Z,2.32
2016-12-04T04:40:43.071Z,2.33
2016-12-04T04:41:09.165Z,2.18
2016-12-04T04:41:35.256Z,2.2
2016-12-04T04:42:01.334Z,2.28
2016-12-04T04:42:27.435Z,2.28
2016-12-04T04:42:53.520Z,2.28
2016-12-04T04:43:19.608Z,2.29
2016-12-04T04:43:45.694Z,2.31
2016-12-04T04:44:11.778Z,2.35
2016-12-04T04:44:37.873Z,2.28
2016-12-04T04:45:03.955Z,2.29
2016-12-04T04:45:30.039Z,2.31
2016-12-04T04:45:56.137Z,2.31
2016-12-04T04:46:22.226Z,2.36
2016-12-04T04:46:48.327Z,2.33
2016-12-04T04:47:14.406Z,2.36
2016-12-04T04:47:40.502Z,2.32
2016-12-04T04:48:06.581Z,2.39
2016-12-04T04:48:32.673Z,2.39
2016-12-04T04:48:58.757Z,2.35
2016-12-04T04:49:24.853Z,2.42
2016-12-04T04:49:50.942Z,2.43
2016-12-04T04:50:17.025Z,2.44
2016-12-04T04:50:43.119Z,2.38
2016-12-04T04:51:09.215Z,2.33
2016-12-04T04:51:35.292Z,2.35
2016-12-04T04:52:01.380Z,2.35
2016-12-04T04:52:27.473Z,2.31
2016-12-04T04:52:53.558Z,2.31
2016-12-04T04:53:19.648Z,2.38
2016-12-04T04:53:45.745Z,2.33
2016-12-04T04:54:11.828Z,2.43
2016-12-04T04:54:37.921Z,2.28
2016-12-04T04:55:03.999Z,2.28
2016-12-04T04:55:30.092Z,2.33
2016-12-04T04:55:56.187Z,2.38
2016-12-04T04:56:22.294Z,2.32
2016-12-04T04:56:48.383Z,2.36
2016-12-04T04:57:14.480Z,2.43
2016-12-04T04:57:40.562Z,2.36
2016-12-04T04:58:06.648Z,2.32
2016-12-04T04:58:32.753Z,2.31
2016-12-04T04:58:58.842Z,2.28
2016-12-04T04:59:24.922Z,2.28
2016-12-04T04:59:51.016Z,2.2
2016-12-04T05:00:17.098Z,2.31
2016-12-04T05:00:43.193Z,2.28
2016-12-04T05:01:09.276Z,2.24
2016-12-04T05:01:35.359Z,2.29
2016-12-04T05:02:01.460Z,2.24
2016-12-04T05:02:27.546Z,2.28
2016-12-04T05:02:53.629Z,2.31
2016-12-04T05:03:19.723Z,2.28
2016-12-04T05:03:45.814Z,2.22
2016-12-04T05:04:11.895Z,2.32
2016-12-04T05:04:37.991Z,2.28
2016-12-04T05:05:04.087Z,2.31
2016-12-04T05:05:30.168Z,2.28
2016-12-04T05:05:56.257Z,2.32
2016-12-04T05:06:22.338Z,2.32
2016-12-04T05:06:48.435Z,2.31
2016-12-04T05:07:14.527Z,2.26
2016-12-04T05:07:40.606Z,2.29
2016-12-04T05:08:06.703Z,2.2
2016-12-04T05:08:32.891Z,2.22
2016-12-04T05:08:59.000Z,2.24
2016-12-04T05:09:25.092Z,2.15
2016-12-04T05:09:51.190Z,2.31
2016-12-04T05:10:17.273Z,2.26
2016-12-04T05:10:43.363Z,2.28
2016-12-04T05:11:09.450Z,2.26
2016-12-04T05:11:35.541Z,2.18
2016-12-04T05:12:01.634Z,2.36
2016-12-04T05:12:27.715Z,2.28
2016-12-04T05:12:53.806Z,2.43
2016-12-04T05:13:19.903Z,2.29
2016-12-04T05:13:45.988Z,2.28
2016-12-04T05:14:12.106Z,2.31
2016-12-04T05:14:38.206Z,2.28
2016-12-04T05:15:04.297Z,2.29
2016-12-04T05:15:30.367Z,2.39
2016-12-04T05:15:56.464Z,2.31
2016-12-04T05:16:22.552Z,2.35
2016-12-04T05:16:48.631Z,2.31
2016-12-04T05:17:14.722Z,2.28
2016-12-04T05:17:40.812Z,2.28
2016-12-04T05:18:06.899Z,2.32
2016-12-04T05:18:32.989Z,2.32
2016-12-04T05:18:59.082Z,2.29
2016-12-04T05:19:25.162Z,2.32
2016-12-04T05:19:51.255Z,2.29
2016-12-04T05:20:17.350Z,2.28
2016-12-04T05:20:43.433Z,2.25
2016-12-04T05:21:09.524Z,2.15
2016-12-04T05:21:35.647Z,2.2
2016-12-04T05:22:01.728Z,2.17
2016-12-04T05:22:27.819Z,2.15
2016-12-04T05:22:53.901Z,2.18
2016-12-04T05:23:19.991Z,2.31
2016-12-04T05:23:46.081Z,2.24
2016-12-04T05:24:12.160Z,2.31
2016-12-04T05:24:38.249Z,2.29
2016-12-04T05:25:04.347Z,2.31
2016-12-04T05:25:30.429Z,2.32
2016-12-04T05:25:56.511Z,2.31
2016-12-04T05:26:22.604Z,2.31
2016-12-04T05:26:48.691Z,2.36
2016-12-04T05:27:14.767Z,2.36
2016-12-04T05:27:40.866Z,2.32
2016-12-04T05:28:06.948Z,2.32
2016-12-04T05:28:33.044Z,2.32
2016-12-04T05:28:59.128Z,2.43
2016-12-04T05:29:25.212Z,2.35
2016-12-04T05:29:51.314Z,2.33
2016-12-04T05:30:17.399Z,2.31
2016-12-04T05:30:43.504Z,2.38
2016-12-04T05:31:09.598Z,2.35
2016-12-04T05:31:35.687Z,2.35
2016-12-04T05:32:01.772Z,2.31
2016-12-04T05:32:27.861Z,2.32
2016-12-04T05:32:53.954Z,2.24
2016-12-04T05:33:20.034Z,2.15
2016-12-04T05:33:46.122Z,2.17
2016-12-04T05:34:12.204Z,2.2
2016-12-04T05:34:38.300Z,2.11
2016-12-04T05:35:04.391Z,2.13
2016-12-04T05:35:30.468Z,2.13
2016-12-04T05:35:56.560Z,2.2
2016-12-04T05:36:22.656Z,2.18
2016-12-04T05:36:48.736Z,2.22
2016-12-04T05:37:14.828Z,2.22
2016-12-04T05:37:40.922Z,2.28
2016-12-04T05:38:07.003Z,2.18
2016-12-04T05:38:33.088Z,2.22
2016-12-04T05:38:59.173Z,2.2
2016-12-04T05:39:25.267Z,2.13
2016-12-04T05:39:51.363Z,2.14
2016-12-04T05:40:17.445Z,2.13
2016-12-04T05:40:43.537Z,2.08
2016-12-04T05:41:09.630Z,2.07
2016-12-04T05:41:35.710Z,2.1
2016-12-04T05:42:01.797Z,2.1
2016-12-04T05:42:27.891Z,2.08
2016-12-04T05:42:53.974Z,2.1
2016-12-04T05:43:20.056Z,2.08
2016-12-04T05:43:46.149Z,2.07
2016-12-04T05:44:12.236Z,2.1
2016-12-04T05:44:38.331Z,2.17
2016-12-04T05:45:04.414Z,2.14
2016-12-04T05:45:30.502Z,2.14
2016-12-04T05:45:56.596Z,2.14
2016-12-04T05:46:22.681Z,2.17
2016-12-04T05:46:48.770Z,2.13
2016-12-04T05:47:14.868Z,2.14
2016-12-04T05:47:40.956Z,2.1
2016-12-04T05:48:07.035Z,2.11
2016-12-04T05:48:33.133Z,1.95
2016-12-04T05:48:59.221Z,2.06
2016-12-04T05:49:25.303Z,2
2016-12-04T05:49:51.395Z,1.99
2016-12-04T05:50:17.474Z,1.97
2016-12-04T05:50:43.571Z,1.97